Ber Learned — 2GNG3 — position and weather

sailwx.info

Track history (hours):
 
Tides and Currents Weather Stations Pressure Air Temp Water Temp Dewpoint Dewpoint Depression Visibility Wind Speed Wind Dir Waves Ship Positions

Ber Learned

Last reported at 2017-Dec-04 10:21 UTC. Time now 2017-Dec-12 14:20 UTC.
Position N 31°24' E 032°19'.
Warning: this ship's position is 8 days out of date.

Length 335 m; draft 12.3 m.

Type: Cargo ship. MMSI: 235077639.

Date/timePositionNaut miles runAvg speedWind from/ knotsBaromVisibWave heightAir tempDewpointWater temp
2017-Dec-04 10:21N 31°24' E 032°19'2 5.5
2017-Dec-04 10:00N 31°26' E 032°17'712.5
2017-Dec-04 09:29N 31°31' E 032°13'714.0
2017-Dec-04 08:59N 31°36' E 032°08'713.9
2017-Dec-04 08:28N 31°41' E 032°02'1613.0
2017-Dec-04 07:14N 31°49' E 031°45'613.4
2017-Dec-04 06:47N 31°50' E 031°38'1413.5
2017-Dec-04 05:44N 31°55' E 031°22'613.5
2017-Dec-04 05:19N 31°57' E 031°16'813.9
2017-Dec-04 04:43N 31°59' E 031°07'414.1
2017-Dec-04 04:25N 32°01' E 031°02'714.1
2017-Dec-04 03:55N 32°03' E 030°54'613.7
2017-Dec-04 03:30N 32°04' E 030°48'1313.8
2017-Dec-04 02:33N 32°09' E 030°33'114.0
2017-Dec-04 02:29N 32°09' E 030°32'1314.0
2017-Dec-04 01:33N 32°13' E 030°17'114.0
2017-Dec-04 01:30N 32°13' E 030°17'11513.4
2017-Dec-03 16:55N 32°49' E 028°07'  
2017-Nov-28 08:43N 36°15' W 008°38'415.4
2017-Nov-28 08:29N 36°15' W 008°42'1318.6
2017-Nov-28 07:46N 36°18' W 008°58'518.6
2017-Nov-28 07:30N 36°19' W 009°04'1618.3
2017-Nov-28 06:39N 36°23' W 009°23'319.0
2017-Nov-28 06:30N 36°24' W 009°26'1118.5
2017-Nov-28 05:56N 36°26' W 009°39'818.5
2017-Nov-28 05:30N 36°29' W 009°49'1918.9
2017-Nov-28 04:30N 36°35' W 010°11'1019.1
2017-Nov-28 04:00N 36°38' W 010°22'1619.1
2017-Nov-28 03:11N 36°43' W 010°41'6418.8
2017-Nov-27 23:47N 37°03' W 011°56'518.5
2017-Nov-27 23:30N 37°05' W 012°02'3918.7
2017-Nov-27 21:26N 37°17' W 012°49'76117.7
2017-Nov-26 02:31N 40°14' W 028°37'1017.5
2017-Nov-26 01:58N 40°16' W 028°50'917.6
2017-Nov-26 01:28N 40°17' W 029°01'  
Track history (hours):
 
Tides and Currents Weather Stations Pressure Air Temp Water Temp Dewpoint Dewpoint Depression Visibility Wind Speed Wind Dir Waves Ship Positions

Ber Learned

Last reported at 2017-Dec-04 10:21 UTC. Time now 2017-Dec-12 14:20 UTC.
Position N 31°24' E 032°19'.
Warning: this ship's position is 8 days out of date.

Length 335 m; draft 12.3 m.

Type: Cargo ship. MMSI: 235077639.

Date/timePositionNaut miles runAvg speedWind from/ knotsBaromVisibWave heightAir tempDewpointWater temp
2017-Dec-04 10:21N 31°24' E 032°19'2 5.5
2017-Dec-04 10:00N 31°26' E 032°17'712.5
2017-Dec-04 09:29N 31°31' E 032°13'714.0
2017-Dec-04 08:59N 31°36' E 032°08'713.9
2017-Dec-04 08:28N 31°41' E 032°02'1613.0
2017-Dec-04 07:14N 31°49' E 031°45'613.4
2017-Dec-04 06:47N 31°50' E 031°38'1413.5
2017-Dec-04 05:44N 31°55' E 031°22'613.5
2017-Dec-04 05:19N 31°57' E 031°16'813.9
2017-Dec-04 04:43N 31°59' E 031°07'414.1
2017-Dec-04 04:25N 32°01' E 031°02'714.1
2017-Dec-04 03:55N 32°03' E 030°54'613.7
2017-Dec-04 03:30N 32°04' E 030°48'1313.8
2017-Dec-04 02:33N 32°09' E 030°33'114.0
2017-Dec-04 02:29N 32°09' E 030°32'1314.0
2017-Dec-04 01:33N 32°13' E 030°17'114.0
2017-Dec-04 01:30N 32°13' E 030°17'11513.4
2017-Dec-03 16:55N 32°49' E 028°07'  
2017-Nov-28 08:43N 36°15' W 008°38'415.4
2017-Nov-28 08:29N 36°15' W 008°42'1318.6
2017-Nov-28 07:46N 36°18' W 008°58'518.6
2017-Nov-28 07:30N 36°19' W 009°04'1618.3
2017-Nov-28 06:39N 36°23' W 009°23'319.0
2017-Nov-28 06:30N 36°24' W 009°26'1118.5
2017-Nov-28 05:56N 36°26' W 009°39'818.5
2017-Nov-28 05:30N 36°29' W 009°49'1918.9
2017-Nov-28 04:30N 36°35' W 010°11'1019.1
2017-Nov-28 04:00N 36°38' W 010°22'1619.1
2017-Nov-28 03:11N 36°43' W 010°41'6418.8
2017-Nov-27 23:47N 37°03' W 011°56'518.5
2017-Nov-27 23:30N 37°05' W 012°02'3918.7
2017-Nov-27 21:26N 37°17' W 012°49'76117.7
2017-Nov-26 02:31N 40°14' W 028°37'1017.5
2017-Nov-26 01:58N 40°16' W 028°50'917.6
2017-Nov-26 01:28N 40°17' W 029°01'  

Dump ship's entire track history